createdAt,value
2022-11-13T00:01:16.256Z,5.90
2022-11-13T00:04:03.268Z,5.97
2022-11-13T00:06:52.673Z,6.33
2022-11-13T00:09:42.685Z,5.80
2022-11-13T00:12:30.593Z,6.00
2022-11-13T00:15:17.261Z,5.03
2022-11-13T00:18:05.485Z,5.60
2022-11-13T00:20:51.741Z,5.57
2022-11-13T00:23:38.929Z,5.77
2022-11-13T00:26:27.737Z,6.33
2022-11-13T00:29:14.240Z,5.80
2022-11-13T00:32:00.609Z,6.13
2022-11-13T00:34:48.819Z,6.80
2022-11-13T00:37:35.521Z,6.77
2022-11-13T00:40:21.927Z,7.27
2022-11-13T00:43:08.426Z,7.30
2022-11-13T00:45:55.381Z,8.07
2022-11-13T00:48:41.814Z,7.47
2022-11-13T00:51:29.721Z,8.30
2022-11-13T00:54:16.481Z,8.00
2022-11-13T00:57:02.866Z,8.70
2022-11-13T00:59:49.414Z,8.40
2022-11-13T01:02:35.881Z,8.40
2022-11-13T01:05:22.456Z,8.70
2022-11-13T01:08:11.464Z,8.93
2022-11-13T01:10:58.061Z,9.30
2022-11-13T01:13:46.081Z,9.87
2022-11-13T01:16:32.697Z,9.57
2022-11-13T01:19:19.136Z,10.00
2022-11-13T01:22:05.520Z,8.30
2022-11-13T01:24:53.221Z,9.37
2022-11-13T01:27:40.517Z,9.10
2022-11-13T01:30:27.189Z,10.10
2022-11-13T01:33:13.829Z,10.00
2022-11-13T01:36:05.174Z,9.33
2022-11-13T01:38:52.632Z,9.10
2022-11-13T01:41:40.951Z,8.47
2022-11-13T01:44:27.472Z,9.27
2022-11-13T01:47:14.197Z,9.33
2022-11-13T01:50:03.608Z,9.73
2022-11-13T01:52:50.276Z,9.60
2022-11-13T01:55:37.079Z,9.80
2022-11-13T01:58:25.465Z,9.63
2022-11-13T02:01:12.478Z,9.93
2022-11-13T02:03:59.263Z,9.50
2022-11-13T02:06:49.139Z,9.43
2022-11-13T02:09:38.837Z,9.47
2022-11-13T02:12:32.069Z,9.87
2022-11-13T02:15:23.707Z,10.47
2022-11-13T02:18:12.023Z,10.10
2022-11-13T02:21:06.580Z,9.70
2022-11-13T02:24:00.253Z,10.90
2022-11-13T02:26:50.584Z,10.00
2022-11-13T02:29:37.383Z,10.17
2022-11-13T02:32:23.724Z,10.73
2022-11-13T02:35:10.448Z,10.77
2022-11-13T02:37:59.365Z,10.70
2022-11-13T02:40:45.827Z,10.77
2022-11-13T02:43:33.644Z,11.13
2022-11-13T02:46:20.168Z,10.70
2022-11-13T02:49:07.626Z,9.20
2022-11-13T02:51:54.344Z,8.67
2022-11-13T02:54:41.049Z,8.50
2022-11-13T02:57:27.636Z,8.63
2022-11-13T03:00:16.452Z,8.17
2022-11-13T03:03:02.752Z,8.13
2022-11-13T03:05:50.604Z,8.20
2022-11-13T03:08:37.618Z,10.30
2022-11-13T03:11:38.016Z,9.77
2022-11-13T03:14:24.676Z,10.70
2022-11-13T03:17:12.395Z,10.80
2022-11-13T03:19:59.458Z,10.87
2022-11-13T03:22:46.196Z,10.53
2022-11-13T03:25:32.666Z,11.57
2022-11-13T03:28:19.002Z,10.23
2022-11-13T03:31:06.016Z,10.87
2022-11-13T03:33:55.372Z,12.57
2022-11-13T03:36:42.110Z,11.83
2022-11-13T03:39:28.475Z,11.43
2022-11-13T03:42:15.049Z,11.40
2022-11-13T03:45:01.377Z,11.97
2022-11-13T03:47:49.248Z,11.20
2022-11-13T03:50:40.337Z,9.60
2022-11-13T03:53:29.597Z,9.77
2022-11-13T03:56:16.039Z,10.17
2022-11-13T03:59:02.355Z,10.00
2022-11-13T04:01:48.898Z,10.50
2022-11-13T04:04:35.532Z,10.30
2022-11-13T04:07:23.132Z,10.13
2022-11-13T04:10:10.201Z,11.07
2022-11-13T04:12:56.554Z,10.47
2022-11-13T04:15:43.000Z,10.97
2022-11-13T04:18:29.791Z,12.00
2022-11-13T04:21:17.068Z,12.30
2022-11-13T04:24:05.163Z,12.20
2022-11-13T04:26:51.532Z,11.43
2022-11-13T04:29:37.860Z,12.20
2022-11-13T04:32:24.483Z,12.63
2022-11-13T04:35:11.432Z,11.67
2022-11-13T04:37:57.960Z,12.70
2022-11-13T04:40:45.607Z,13.00
2022-11-13T04:43:31.302Z,12.57
2022-11-13T04:46:17.733Z,12.87
2022-11-13T04:49:04.131Z,12.70
2022-11-13T04:51:50.546Z,11.80
2022-11-13T04:54:36.970Z,13.87
2022-11-13T04:57:24.747Z,12.83
2022-11-13T05:00:12.289Z,14.60
2022-11-13T05:02:58.744Z,14.00
2022-11-13T05:05:45.360Z,12.90
2022-11-13T05:08:31.824Z,14.40
2022-11-13T05:11:18.249Z,14.07
2022-11-13T05:14:07.634Z,14.40
2022-11-13T05:16:54.215Z,13.87
2022-11-13T05:19:40.709Z,13.50
2022-11-13T05:22:27.141Z,13.93
2022-11-13T05:25:13.552Z,13.83
2022-11-13T05:28:00.117Z,14.67
2022-11-13T05:30:47.903Z,13.83
2022-11-13T05:33:34.530Z,14.30
2022-11-13T05:36:22.287Z,15.07
2022-11-13T05:39:09.024Z,14.83
2022-11-13T05:41:55.648Z,13.10
2022-11-13T05:44:41.980Z,14.13
2022-11-13T05:47:29.765Z,14.07
2022-11-13T05:50:16.877Z,14.27
2022-11-13T05:53:03.367Z,12.80
2022-11-13T05:55:49.776Z,13.77
2022-11-13T05:58:36.739Z,14.13
2022-11-13T06:01:25.297Z,13.93
2022-11-13T06:04:13.486Z,13.53
2022-11-13T06:07:00.187Z,13.03
2022-11-13T06:09:46.924Z,12.57
2022-11-13T06:12:33.352Z,11.83
2022-11-13T06:15:19.937Z,12.00
2022-11-13T06:18:06.444Z,12.20
2022-11-13T06:20:54.548Z,12.63
2022-11-13T06:23:42.483Z,12.03
2022-11-13T06:26:31.468Z,12.70
2022-11-13T06:29:17.748Z,12.67
2022-11-13T06:32:04.305Z,12.73
2022-11-13T06:34:50.963Z,13.17
2022-11-13T06:37:38.756Z,13.20
2022-11-13T06:40:25.500Z,12.60
2022-11-13T06:43:12.253Z,12.40
2022-11-13T06:45:59.476Z,12.23
2022-11-13T06:48:46.519Z,13.03
2022-11-13T06:51:33.202Z,13.50
2022-11-13T06:54:21.119Z,12.00
2022-11-13T06:57:07.690Z,12.13
2022-11-13T06:59:54.015Z,10.43
2022-11-13T07:02:40.324Z,10.87
2022-11-13T07:05:27.289Z,10.50
2022-11-13T07:08:14.580Z,9.50
2022-11-13T07:11:02.341Z,10.57
2022-11-13T07:13:49.846Z,9.10
2022-11-13T07:17:04.191Z,10.90
2022-11-13T07:19:42.801Z,11.93
2022-11-13T07:22:30.525Z,12.90
2022-11-13T07:25:16.898Z,13.10
2022-11-13T07:28:05.296Z,12.97
2022-11-13T07:30:52.101Z,14.30
2022-11-13T07:33:38.901Z,13.07
2022-11-13T07:36:25.361Z,14.37
2022-11-13T07:39:11.721Z,14.90
2022-11-13T07:41:58.129Z,14.50
2022-11-13T07:44:54.698Z,15.97
2022-11-13T07:47:42.333Z,15.93
2022-11-13T07:50:29.957Z,15.47
2022-11-13T07:53:17.089Z,15.63
2022-11-13T07:56:04.489Z,14.90
2022-11-13T07:58:51.203Z,15.63
2022-11-13T08:01:39.488Z,15.13
2022-11-13T08:04:26.441Z,15.10
2022-11-13T08:07:13.678Z,14.57
2022-11-13T08:10:00.473Z,14.67
2022-11-13T08:12:47.608Z,15.20
2022-11-13T08:15:35.316Z,14.60
2022-11-13T08:18:23.145Z,14.03
2022-11-13T08:21:14.647Z,14.23
2022-11-13T08:24:01.939Z,14.50
2022-11-13T08:26:48.452Z,14.27
2022-11-13T08:29:37.196Z,13.90
2022-11-13T08:32:24.107Z,13.40
2022-11-13T08:35:16.049Z,13.80
2022-11-13T08:38:07.327Z,13.17
2022-11-13T08:40:57.299Z,13.40
2022-11-13T08:43:43.938Z,14.17
2022-11-13T08:46:30.438Z,13.73
2022-11-13T08:49:17.038Z,12.77
2022-11-13T08:52:05.260Z,12.73
2022-11-13T08:54:51.848Z,13.93
2022-11-13T08:57:40.302Z,13.60
2022-11-13T09:00:26.755Z,12.40
2022-11-13T09:03:13.531Z,12.97
2022-11-13T09:06:00.304Z,13.07
2022-11-13T09:08:48.109Z,13.83
2022-11-13T09:11:35.202Z,13.07
2022-11-13T09:14:21.813Z,12.73
2022-11-13T09:17:08.570Z,12.73
2022-11-13T09:19:54.946Z,12.70
2022-11-13T09:22:41.310Z,13.70
2022-11-13T09:25:34.293Z,13.47
2022-11-13T09:28:24.170Z,13.90
2022-11-13T09:31:11.183Z,14.27
2022-11-13T09:33:57.672Z,13.23
2022-11-13T09:36:44.159Z,12.77
2022-11-13T09:39:30.523Z,13.80
2022-11-13T09:42:21.520Z,13.30
2022-11-13T09:45:13.294Z,14.17
2022-11-13T09:48:09.143Z,13.57
2022-11-13T09:50:57.014Z,13.73
2022-11-13T09:53:43.827Z,14.17
2022-11-13T09:56:34.692Z,14.80
2022-11-13T09:59:29.977Z,14.23
2022-11-13T10:02:31.908Z,14.43
2022-11-13T10:05:26.448Z,14.30
2022-11-13T10:08:17.827Z,14.50
2022-11-13T10:11:16.125Z,14.40
2022-11-13T10:14:09.145Z,14.40
2022-11-13T10:17:00.406Z,15.13
2022-11-13T10:19:56.439Z,13.93
2022-11-13T10:22:49.509Z,14.23
2022-11-13T10:25:39.114Z,13.87
2022-11-13T10:28:49.482Z,13.20
2022-11-13T10:31:43.631Z,13.03
2022-11-13T10:34:33.167Z,13.40
2022-11-13T10:37:29.916Z,12.80
2022-11-13T10:40:25.372Z,13.27
2022-11-13T10:43:16.380Z,12.93
2022-11-13T10:46:04.529Z,13.20
2022-11-13T10:48:51.700Z,12.50
2022-11-13T10:51:40.601Z,12.50
2022-11-13T10:54:30.491Z,12.43
2022-11-13T10:57:26.452Z,11.10
2022-11-13T11:00:24.871Z,12.93
2022-11-13T11:03:16.856Z,12.53
2022-11-13T11:06:05.467Z,12.93
2022-11-13T11:08:53.483Z,12.97
2022-11-13T11:11:58.360Z,12.67
2022-11-13T11:15:01.072Z,12.87
2022-11-13T11:17:50.402Z,13.67
2022-11-13T11:20:48.836Z,13.30
2022-11-13T11:23:41.465Z,13.60
2022-11-13T11:26:34.933Z,13.13
2022-11-13T11:29:27.777Z,13.90
2022-11-13T11:32:20.317Z,13.27
2022-11-13T11:35:14.444Z,14.47
2022-11-13T11:38:08.507Z,13.70
2022-11-13T11:41:03.098Z,15.10
2022-11-13T11:44:01.916Z,15.10
2022-11-13T11:46:48.384Z,13.87
2022-11-13T11:49:34.977Z,15.77
2022-11-13T11:52:33.405Z,15.43
2022-11-13T11:55:35.238Z,15.60
2022-11-13T11:58:36.620Z,15.97
2022-11-13T12:01:36.854Z,16.50
2022-11-13T12:04:47.493Z,15.73
2022-11-13T12:07:42.167Z,17.30
2022-11-13T12:10:36.519Z,17.83
2022-11-13T12:13:29.917Z,17.60
2022-11-13T12:16:25.045Z,18.80
2022-11-13T12:19:23.260Z,18.20
2022-11-13T12:22:17.664Z,17.80
2022-11-13T12:25:16.421Z,18.17
2022-11-13T12:28:11.989Z,18.87
2022-11-13T12:31:08.254Z,19.03
2022-11-13T12:34:06.249Z,18.40
2022-11-13T12:36:55.701Z,17.03
2022-11-13T12:39:50.241Z,18.47
2022-11-13T12:42:43.101Z,17.43
2022-11-13T12:45:51.836Z,18.13
2022-11-13T12:48:42.002Z,17.60
2022-11-13T12:51:40.329Z,18.20
2022-11-13T12:54:29.520Z,17.73
2022-11-13T12:57:25.823Z,17.07
2022-11-13T13:00:26.569Z,16.90
2022-11-13T13:03:38.192Z,16.43
2022-11-13T13:06:41.537Z,18.73
2022-11-13T13:09:44.142Z,15.90
2022-11-13T13:12:43.089Z,15.77
2022-11-13T13:15:34.010Z,17.57
2022-11-13T13:18:28.881Z,18.03
2022-11-13T13:21:17.658Z,18.60
2022-11-13T13:24:09.959Z,19.27
2022-11-13T13:26:58.472Z,20.10
2022-11-13T13:29:44.849Z,19.00
2022-11-13T13:32:39.672Z,21.97
2022-11-13T13:35:31.626Z,22.17
2022-11-13T13:38:24.990Z,23.23
2022-11-13T13:41:19.809Z,22.30
2022-11-13T13:44:36.788Z,21.07
2022-11-13T13:47:28.020Z,21.03
2022-11-13T13:50:18.809Z,20.30
2022-11-13T13:53:05.600Z,20.67
2022-11-13T13:55:55.317Z,20.30
2022-11-13T13:58:42.608Z,19.70
2022-11-13T14:01:32.297Z,20.30
2022-11-13T14:04:21.150Z,20.73
2022-11-13T14:07:21.373Z,20.73
2022-11-13T14:10:15.472Z,23.03
2022-11-13T14:13:02.006Z,22.87
2022-11-13T14:15:48.447Z,22.13
2022-11-13T14:18:37.113Z,21.17
2022-11-13T14:21:25.015Z,21.20
2022-11-13T14:24:17.826Z,20.87
2022-11-13T14:27:08.192Z,17.87
2022-11-13T14:29:57.925Z,19.57
2022-11-13T14:32:47.329Z,18.50
2022-11-13T14:35:36.829Z,19.27
2022-11-13T14:38:26.299Z,19.63
2022-11-13T14:41:22.581Z,19.33
2022-11-13T14:44:12.512Z,18.87
2022-11-13T14:47:02.705Z,19.33
2022-11-13T14:49:49.007Z,17.43
2022-11-13T14:52:36.880Z,17.97
2022-11-13T14:55:25.329Z,18.17
2022-11-13T14:58:14.760Z,19.07
2022-11-13T15:01:12.617Z,18.47
2022-11-13T15:03:59.502Z,17.93
2022-11-13T15:06:46.256Z,18.97
2022-11-13T15:09:35.346Z,18.63
2022-11-13T15:12:21.917Z,18.17
2022-11-13T15:15:14.336Z,18.90
2022-11-13T15:18:03.196Z,18.43
2022-11-13T15:20:51.067Z,18.27
2022-11-13T15:23:37.737Z,18.80
2022-11-13T15:26:25.827Z,20.37
2022-11-13T15:29:12.733Z,19.03
2022-11-13T15:31:59.416Z,19.00
2022-11-13T15:34:45.858Z,18.77
2022-11-13T15:37:32.284Z,18.83
2022-11-13T15:40:19.123Z,19.77
2022-11-13T15:43:06.922Z,20.47
2022-11-13T15:45:53.697Z,20.10
2022-11-13T15:48:40.104Z,20.53
2022-11-13T15:51:32.947Z,21.10
2022-11-13T15:54:26.405Z,20.60
2022-11-13T15:57:19.164Z,20.93
2022-11-13T16:00:15.319Z,22.17
2022-11-13T16:03:04.682Z,20.60
2022-11-13T16:05:51.429Z,21.90
2022-11-13T16:08:38.546Z,21.67
2022-11-13T16:11:25.619Z,22.70
2022-11-13T16:14:12.225Z,23.40
2022-11-13T16:17:00.169Z,23.13
2022-11-13T16:19:48.233Z,23.70
2022-11-13T16:22:35.048Z,25.57
2022-11-13T16:25:23.218Z,22.97
2022-11-13T16:28:15.356Z,23.37
2022-11-13T16:31:02.079Z,21.53
2022-11-13T16:33:50.381Z,24.17
2022-11-13T16:36:36.940Z,23.83
2022-11-13T16:39:23.261Z,21.43
2022-11-13T16:42:10.084Z,21.37
2022-11-13T16:44:56.740Z,20.97
2022-11-13T16:47:43.141Z,21.73
2022-11-13T16:50:32.907Z,22.17
2022-11-13T16:53:19.601Z,19.83
2022-11-13T16:56:13.972Z,21.07
2022-11-13T16:59:00.449Z,21.47
2022-11-13T17:01:47.364Z,19.90
2022-11-13T17:04:34.046Z,22.33
2022-11-13T17:07:22.462Z,19.10
2022-11-13T17:13:18.955Z,17.83
2022-11-13T17:16:05.788Z,18.33
2022-11-13T17:18:53.326Z,19.87
2022-11-13T17:21:43.944Z,20.00
2022-11-13T17:24:32.925Z,18.40
2022-11-13T17:27:19.474Z,17.40
2022-11-13T17:30:07.475Z,17.67
2022-11-13T17:32:54.328Z,16.87
2022-11-13T17:35:40.975Z,17.67
2022-11-13T17:38:28.978Z,15.53
2022-11-13T17:41:17.667Z,15.00
2022-11-13T17:44:04.382Z,18.03
2022-11-13T17:46:51.946Z,16.40
2022-11-13T17:49:38.843Z,16.53
2022-11-13T17:52:25.329Z,14.30
2022-11-13T17:55:13.882Z,14.40
2022-11-13T17:58:02.547Z,14.30
2022-11-13T18:00:49.247Z,12.37
2022-11-13T18:03:35.964Z,11.50
2022-11-13T18:06:23.090Z,12.23
2022-11-13T18:09:09.702Z,11.73
2022-11-13T18:11:56.388Z,11.87
2022-11-13T18:14:44.131Z,11.13
2022-11-13T18:17:30.744Z,10.40
2022-11-13T18:20:17.675Z,10.73
2022-11-13T18:23:04.109Z,10.97
2022-11-13T18:25:50.712Z,10.53
2022-11-13T18:28:37.487Z,10.67
2022-11-13T18:31:25.824Z,11.27
2022-11-13T18:34:17.547Z,11.27
2022-11-13T18:37:04.261Z,13.03
2022-11-13T18:39:51.125Z,12.17
2022-11-13T18:42:37.796Z,12.23
2022-11-13T18:45:24.259Z,12.53
2022-11-13T18:48:12.024Z,11.17
2022-11-13T18:50:59.623Z,11.07
2022-11-13T18:53:48.301Z,11.07
2022-11-13T18:56:34.681Z,11.83
2022-11-13T18:59:21.200Z,11.87
2022-11-13T19:02:07.977Z,11.10
2022-11-13T19:04:56.345Z,11.03
2022-11-13T19:07:43.704Z,11.13
2022-11-13T19:10:30.102Z,10.20
2022-11-13T19:13:16.444Z,10.20
2022-11-13T19:16:07.074Z,10.57
2022-11-13T19:18:55.094Z,10.03
2022-11-13T19:21:43.358Z,10.13
2022-11-13T19:24:29.788Z,10.83
2022-11-13T19:27:16.309Z,11.83
2022-11-13T19:30:02.614Z,13.33
2022-11-13T19:32:49.209Z,11.17
2022-11-13T19:35:37.214Z,10.63
2022-11-13T19:38:25.629Z,10.43
2022-11-13T19:41:13.420Z,10.03
2022-11-13T19:44:00.533Z,9.47
2022-11-13T19:46:47.913Z,12.27
2022-11-13T19:49:35.225Z,9.50
2022-11-13T19:52:21.894Z,11.10
2022-11-13T19:55:12.703Z,11.77
2022-11-13T19:57:59.487Z,12.13
2022-11-13T20:00:45.968Z,11.00
2022-11-13T20:03:32.287Z,9.83
2022-11-13T20:06:18.753Z,10.43
2022-11-13T20:09:05.736Z,11.20
2022-11-13T20:11:53.564Z,10.43
2022-11-13T20:14:40.059Z,10.00
2022-11-13T20:17:27.354Z,9.50
2022-11-13T20:20:14.060Z,9.83
2022-11-13T20:23:00.955Z,8.93
2022-11-13T20:25:53.675Z,8.40
2022-11-13T20:28:41.912Z,11.40
2022-11-13T20:31:29.929Z,11.83
2022-11-13T20:34:18.034Z,12.43
2022-11-13T20:37:04.773Z,12.63
2022-11-13T20:39:51.934Z,14.47
2022-11-13T20:42:38.330Z,13.87
2022-11-13T20:45:26.190Z,12.83
2022-11-13T20:48:13.050Z,18.43
2022-11-13T20:51:06.476Z,19.20
2022-11-13T20:53:53.874Z,19.30
2022-11-13T20:56:40.374Z,19.77
2022-11-13T20:59:26.979Z,21.53
2022-11-13T21:02:14.793Z,21.70
2022-11-13T21:05:01.162Z,22.33
2022-11-13T21:07:47.727Z,21.70
2022-11-13T21:10:34.829Z,22.97
2022-11-13T21:13:21.290Z,23.10
2022-11-13T21:16:09.630Z,22.53
2022-11-13T21:18:59.002Z,22.47
2022-11-13T21:21:45.656Z,23.40
2022-11-13T21:24:31.992Z,23.93
2022-11-13T21:27:18.546Z,22.77
2022-11-13T21:30:05.700Z,23.33
2022-11-13T21:32:52.358Z,23.00
2022-11-13T21:35:40.347Z,23.13
2022-11-13T21:38:27.384Z,25.73
2022-11-13T21:41:24.824Z,23.70
2022-11-13T21:44:12.025Z,22.57
2022-11-13T21:46:58.950Z,23.60
2022-11-13T21:49:45.744Z,24.57
2022-11-13T21:52:33.655Z,24.77
2022-11-13T21:55:20.065Z,24.63
2022-11-13T21:58:06.521Z,28.13
2022-11-13T22:00:53.112Z,24.23
2022-11-13T22:03:40.245Z,25.17
2022-11-13T22:06:28.462Z,25.83
2022-11-13T22:09:18.347Z,23.47
2022-11-13T22:12:04.959Z,23.70
2022-11-13T22:14:51.432Z,22.60
2022-11-13T22:17:38.089Z,24.53
2022-11-13T22:20:24.666Z,23.43
2022-11-13T22:23:11.366Z,24.10
2022-11-13T22:26:04.341Z,23.27
2022-11-13T22:28:51.621Z,23.77
2022-11-13T22:31:39.541Z,24.27
2022-11-13T22:34:26.449Z,24.67
2022-11-13T22:37:13.011Z,26.17
2022-11-13T22:39:59.392Z,25.03
2022-11-13T22:42:47.329Z,24.33
2022-11-13T22:45:34.778Z,24.27
2022-11-13T22:48:21.601Z,24.43
2022-11-13T22:51:10.407Z,24.47
2022-11-13T22:53:59.777Z,24.50
2022-11-13T22:56:46.525Z,24.60
2022-11-13T22:59:34.232Z,24.30
2022-11-13T23:02:20.812Z,23.73
2022-11-13T23:05:07.739Z,23.93
2022-11-13T23:07:54.510Z,25.63
2022-11-13T23:10:41.285Z,23.23
2022-11-13T23:13:27.621Z,26.43
2022-11-13T23:16:15.728Z,24.17
2022-11-13T23:19:03.198Z,25.10
2022-11-13T23:21:50.015Z,25.60
2022-11-13T23:24:36.432Z,25.43
2022-11-13T23:27:22.837Z,25.93
2022-11-13T23:30:10.863Z,26.10
2022-11-13T23:32:58.700Z,25.30
2022-11-13T23:35:45.192Z,25.37
2022-11-13T23:38:32.055Z,26.37
2022-11-13T23:41:18.904Z,25.43
2022-11-13T23:44:09.917Z,24.97
2022-11-13T23:46:56.403Z,24.27
2022-11-13T23:49:44.352Z,24.33
2022-11-13T23:52:30.828Z,26.23
2022-11-13T23:55:18.620Z,25.80
2022-11-13T23:58:06.773Z,25.53
